createdAt,value
2023-05-20T13:08:48.652Z,28.32
2023-05-20T13:11:16.766Z,28.22
2023-05-20T13:13:45.074Z,27.63
2023-05-20T13:16:13.855Z,27.28
2023-05-20T13:18:42.328Z,26.71
2023-05-20T13:21:10.305Z,27.14
2023-05-20T13:23:39.019Z,27.16
2023-05-20T13:26:08.317Z,27.56
2023-05-20T13:28:36.812Z,27.94
2023-05-20T13:31:07.449Z,27.23
2023-05-20T13:33:35.389Z,27.42
2023-05-20T13:36:03.395Z,27.67
2023-05-20T13:38:31.899Z,27.20
2023-05-20T13:41:00.667Z,27.31
2023-05-20T13:43:30.641Z,26.89
2023-05-20T13:45:58.645Z,26.97
2023-05-20T13:48:27.157Z,27.69
2023-05-20T13:50:55.246Z,27.77
2023-05-20T13:53:23.775Z,27.72
2023-05-20T13:55:52.432Z,27.98
2023-05-20T13:58:20.526Z,27.93
2023-05-20T14:00:50.079Z,28.27
2023-05-20T14:03:18.657Z,27.97
2023-05-20T14:05:46.720Z,28.26
2023-05-20T14:08:14.750Z,28.62
2023-05-20T14:10:43.416Z,28.35
2023-05-20T14:13:11.270Z,27.32
2023-05-20T14:15:39.198Z,28.30
2023-05-20T14:18:09.043Z,27.79
2023-05-20T14:20:37.641Z,27.63
2023-05-20T14:23:05.912Z,27.14
2023-05-20T14:25:34.426Z,27.41
2023-05-20T14:28:02.499Z,27.51
2023-05-20T14:30:30.274Z,27.13
2023-05-20T14:32:58.783Z,27.56
2023-05-20T14:35:28.369Z,27.92
2023-05-20T14:37:56.418Z,27.79
2023-05-20T14:40:25.155Z,28.07
2023-05-20T14:42:53.199Z,27.77
2023-05-20T14:45:21.565Z,28.00
2023-05-20T14:47:50.115Z,28.57
2023-05-20T14:50:18.240Z,27.89
2023-05-20T14:52:47.590Z,27.38
2023-05-20T14:55:16.188Z,28.09
2023-05-20T14:57:44.657Z,28.28
2023-05-20T15:00:13.914Z,27.80
2023-05-20T15:02:42.711Z,27.18
2023-05-20T15:05:12.212Z,27.27
2023-05-20T15:07:40.452Z,27.18
2023-05-20T15:10:10.963Z,27.58
2023-05-20T15:12:39.166Z,27.77
2023-05-20T15:15:08.022Z,27.89
2023-05-20T15:17:36.755Z,27.98
2023-05-20T15:20:05.521Z,27.60
2023-05-20T15:22:33.642Z,27.59
2023-05-20T15:25:02.386Z,26.52
2023-05-20T15:27:31.797Z,27.34
2023-05-20T15:29:59.655Z,26.67
2023-05-20T15:32:28.175Z,27.04
2023-05-20T15:34:56.208Z,27.31
2023-05-20T15:37:24.180Z,27.46
2023-05-20T15:39:52.865Z,27.17
2023-05-20T15:42:21.602Z,28.10
2023-05-20T15:44:51.164Z,27.83
2023-05-20T15:47:19.954Z,27.48
2023-05-20T15:49:47.999Z,27.52
2023-05-20T15:52:16.270Z,27.29
2023-05-20T15:54:44.692Z,27.92
2023-05-20T15:57:12.656Z,27.04
2023-05-20T15:59:40.623Z,26.80
2023-05-20T16:02:10.442Z,27.02
2023-05-20T16:04:38.662Z,26.25
2023-05-20T16:07:06.890Z,26.57
2023-05-20T16:09:36.165Z,26.23
2023-05-20T16:12:05.315Z,26.26
2023-05-20T16:14:34.182Z,26.58
2023-05-20T16:17:02.583Z,26.36
2023-05-20T16:19:32.229Z,26.69
2023-05-20T16:22:01.845Z,26.94
2023-05-20T16:24:30.107Z,26.94
2023-05-20T16:26:58.354Z,26.49
2023-05-20T16:29:27.024Z,25.60
2023-05-20T16:31:55.850Z,26.39
2023-05-20T16:34:23.973Z,26.51
2023-05-20T16:36:53.935Z,26.45
2023-05-20T16:39:22.008Z,26.72
2023-05-20T16:41:50.168Z,27.48
2023-05-20T16:44:18.984Z,26.87
2023-05-20T16:46:47.261Z,27.12
2023-05-20T16:49:15.631Z,26.65
2023-05-20T16:51:44.026Z,26.60
2023-05-20T16:54:13.797Z,26.41
2023-05-20T16:56:41.970Z,26.95
2023-05-20T16:59:10.645Z,26.85
2023-05-20T17:01:48.660Z,26.50
2023-05-20T17:04:17.592Z,26.21
2023-05-20T17:06:46.021Z,26.19
2023-05-20T17:09:16.249Z,25.92
2023-05-20T17:11:45.141Z,25.59
2023-05-20T17:14:15.483Z,25.37
2023-05-20T17:16:44.339Z,25.48
2023-05-20T17:19:17.372Z,25.52
2023-05-20T17:21:48.302Z,25.12
2023-05-20T17:24:18.544Z,25.00
2023-05-20T17:26:46.784Z,24.91
2023-05-20T17:29:15.692Z,25.25
2023-05-20T17:31:47.830Z,24.92
2023-05-20T17:34:16.192Z,24.61
2023-05-20T17:36:44.216Z,24.97
2023-05-20T17:39:13.120Z,24.82
2023-05-20T17:41:43.581Z,24.78
2023-05-20T17:44:12.004Z,24.53
2023-05-20T17:46:40.756Z,24.41
2023-05-20T17:49:09.037Z,24.53
2023-05-20T17:51:37.514Z,24.59
2023-05-20T17:54:06.696Z,24.53
2023-05-20T17:56:35.326Z,24.11
2023-05-20T17:59:05.025Z,24.13
2023-05-20T18:01:34.200Z,23.83
2023-05-20T18:04:05.652Z,23.95
2023-05-20T18:06:36.105Z,23.77
2023-05-20T18:09:06.120Z,23.98
2023-05-20T18:11:35.627Z,24.16
2023-05-20T18:14:05.050Z,23.98
2023-05-20T18:16:33.495Z,23.80
2023-05-20T18:19:03.023Z,23.88
2023-05-20T18:21:32.397Z,23.84
2023-05-20T18:24:00.375Z,23.42
2023-05-20T18:26:29.003Z,23.24
2023-05-20T18:28:57.256Z,23.62
2023-05-20T18:31:27.107Z,23.42
2023-05-20T18:33:56.029Z,23.12
2023-05-20T18:36:24.383Z,22.86
2023-05-20T18:38:52.443Z,23.18
2023-05-20T18:41:23.543Z,23.26
2023-05-20T18:43:53.489Z,23.10
2023-05-20T18:46:22.223Z,22.83
2023-05-20T18:48:51.907Z,22.95
2023-05-20T18:51:20.246Z,22.84
2023-05-20T18:53:49.520Z,22.71
2023-05-20T18:56:17.902Z,22.53
2023-05-20T18:58:46.439Z,22.60
2023-05-20T19:01:15.164Z,22.64
2023-05-20T19:03:45.083Z,22.43
2023-05-20T19:06:16.987Z,22.43
2023-05-20T19:08:46.109Z,22.68
2023-05-20T19:11:14.513Z,22.43
2023-05-20T19:13:43.028Z,22.28
2023-05-20T19:16:11.376Z,22.30
2023-05-20T19:18:39.560Z,22.25
2023-05-20T19:21:07.687Z,22.16
2023-05-20T19:23:37.440Z,22.10
2023-05-20T19:26:05.669Z,22.40
2023-05-20T19:28:34.439Z,22.16
2023-05-20T19:31:02.755Z,21.99
2023-05-20T19:33:31.395Z,21.90
2023-05-20T19:35:59.789Z,21.96
2023-05-20T19:38:28.026Z,21.94
2023-05-20T19:40:58.288Z,21.80
2023-05-20T19:43:26.660Z,22.03
2023-05-20T19:45:55.228Z,21.77
2023-05-20T19:48:23.948Z,22.10
2023-05-20T19:50:52.264Z,21.85
2023-05-20T19:55:52.669Z,21.74
2023-05-20T19:58:46.041Z,21.82
2023-05-20T20:01:14.623Z,21.86
2023-05-20T20:03:42.802Z,22.11
2023-05-20T20:06:11.369Z,21.83
2023-05-20T20:08:40.813Z,21.99
2023-05-20T20:11:09.240Z,21.94
2023-05-20T20:13:37.455Z,22.02
2023-05-20T20:16:08.030Z,21.97
2023-05-20T20:18:36.124Z,21.84
2023-05-20T20:21:06.105Z,22.10
2023-05-20T20:23:37.097Z,21.96
2023-05-20T20:26:06.376Z,22.10
2023-05-20T20:28:34.601Z,22.17
2023-05-20T20:31:04.588Z,22.14
2023-05-20T20:33:33.799Z,21.72
2023-05-20T20:36:02.534Z,22.01
2023-05-20T20:38:30.863Z,21.78
2023-05-20T20:40:59.411Z,21.89
2023-05-20T20:43:28.944Z,21.99
2023-05-20T20:45:57.690Z,21.79
2023-05-20T20:48:27.110Z,21.93
2023-05-20T20:50:58.107Z,22.00
2023-05-20T20:53:26.593Z,21.56
2023-05-20T20:55:54.532Z,21.60
2023-05-20T20:58:22.769Z,21.63
2023-05-20T21:00:51.025Z,21.51
2023-05-20T21:03:19.107Z,21.37
2023-05-20T21:05:48.589Z,21.29
2023-05-20T21:08:18.276Z,21.20
2023-05-20T21:10:46.377Z,21.14
2023-05-20T21:13:14.375Z,21.21
2023-05-20T21:15:43.448Z,21.27
2023-05-20T21:18:11.499Z,20.95
2023-05-20T21:20:39.607Z,21.15
2023-05-20T21:23:08.150Z,21.00
2023-05-20T21:25:37.897Z,20.87
2023-05-20T21:28:06.391Z,20.72
2023-05-20T21:30:34.897Z,20.74
2023-05-20T21:33:03.192Z,20.59
2023-05-20T21:35:31.223Z,20.90
2023-05-20T21:37:59.702Z,20.70
2023-05-20T21:40:27.660Z,20.82
2023-05-20T21:42:57.052Z,20.63
2023-05-20T21:45:26.804Z,20.65
2023-05-20T21:47:55.298Z,20.58
2023-05-20T21:50:23.487Z,20.66
2023-05-20T21:52:52.096Z,20.64
2023-05-20T21:55:23.403Z,20.65
2023-05-20T21:57:51.660Z,20.68
2023-05-20T22:00:21.809Z,20.74
2023-05-20T22:02:50.809Z,20.61
2023-05-20T22:05:19.896Z,20.79
2023-05-20T22:07:48.626Z,20.74
2023-05-20T22:10:17.690Z,20.79
2023-05-20T22:12:47.480Z,20.80
2023-05-20T22:15:15.803Z,20.60
2023-05-20T22:17:47.477Z,20.83
2023-05-20T22:20:16.185Z,20.59
2023-05-20T22:22:44.223Z,20.68
2023-05-20T22:25:13.241Z,20.82
2023-05-20T22:27:43.114Z,20.71
2023-05-20T22:30:13.048Z,20.58
2023-05-20T22:32:41.580Z,20.74
2023-05-20T22:35:13.526Z,20.90
2023-05-20T22:37:41.860Z,20.87
2023-05-20T22:40:11.257Z,20.72
2023-05-20T22:42:39.691Z,20.87
2023-05-20T22:45:08.953Z,20.67
2023-05-20T22:47:36.832Z,20.68
2023-05-20T22:50:05.986Z,20.98
2023-05-20T22:52:36.791Z,20.85
2023-05-20T22:55:05.181Z,20.99
2023-05-20T22:57:37.438Z,20.74
2023-05-20T23:00:07.818Z,20.72
2023-05-20T23:02:36.426Z,20.57
2023-05-20T23:05:05.561Z,20.85
2023-05-20T23:07:33.409Z,20.76
2023-05-20T23:10:03.214Z,20.70
2023-05-20T23:12:31.307Z,21.01
2023-05-20T23:14:59.787Z,20.60
2023-05-20T23:17:28.084Z,20.76
2023-05-20T23:19:56.015Z,20.65
2023-05-20T23:22:23.888Z,20.41
2023-05-20T23:24:52.289Z,20.79
2023-05-20T23:27:21.995Z,20.68
2023-05-20T23:29:50.395Z,20.54
2023-05-20T23:32:18.997Z,20.88
2023-05-20T23:34:47.647Z,20.42
2023-05-20T23:37:15.808Z,20.73
2023-05-20T23:39:44.225Z,20.60
2023-05-20T23:42:12.372Z,20.83
2023-05-20T23:44:41.772Z,20.43
2023-05-20T23:47:10.225Z,20.53
2023-05-20T23:49:38.286Z,20.44
2023-05-20T23:52:07.393Z,20.32
2023-05-20T23:54:35.492Z,20.15
2023-05-20T23:57:03.542Z,20.48
2023-05-20T23:59:31.949Z,20.30
